sensor_id;sensor_type;location;lat;lon;timestamp;temperature;humidity
52301;DHT22;38528;53.214;6.562;2022-08-04T00:00:08;22.10;99.90
52301;DHT22;38528;53.214;6.562;2022-08-04T00:06:02;21.90;99.90
52301;DHT22;38528;53.214;6.562;2022-08-04T00:08:49;21.90;99.90
52301;DHT22;38528;53.214;6.562;2022-08-04T00:11:21;21.80;99.90
52301;DHT22;38528;53.214;6.562;2022-08-04T00:13:53;21.90;99.90
52301;DHT22;38528;53.214;6.562;2022-08-04T00:16:21;21.90;99.90
52301;DHT22;38528;53.214;6.562;2022-08-04T00:19:03;21.90;99.90
52301;DHT22;38528;53.214;6.562;2022-08-04T00:21:31;22.00;99.90
52301;DHT22;38528;53.214;6.562;2022-08-04T00:24:01;22.00;99.90
52301;DHT22;38528;53.214;6.562;2022-08-04T00:26:26;21.90;99.90
52301;DHT22;38528;53.214;6.562;2022-08-04T00:28:53;21.90;99.90
52301;DHT22;38528;53.214;6.562;2022-08-04T00:31:21;22.00;99.90
52301;DHT22;38528;53.214;6.562;2022-08-04T00:33:50;22.00;99.90
52301;DHT22;38528;53.214;6.562;2022-08-04T00:36:16;22.00;99.90
52301;DHT22;38528;53.214;6.562;2022-08-04T00:38:43;22.00;99.90
52301;DHT22;38528;53.214;6.562;2022-08-04T00:41:34;22.00;99.90
52301;DHT22;38528;53.214;6.562;2022-08-04T00:49:51;22.00;99.90
52301;DHT22;38528;53.214;6.562;2022-08-04T00:56:03;22.00;99.90
52301;DHT22;38528;53.214;6.562;2022-08-04T01:01:40;22.10;99.90
52301;DHT22;38528;53.214;6.562;2022-08-04T01:12:57;21.90;99.90
52301;DHT22;38528;53.214;6.562;2022-08-04T01:15:53;21.90;99.90
52301;DHT22;38528;53.214;6.562;2022-08-04T01:21:05;21.90;99.90
52301;DHT22;38528;53.214;6.562;2022-08-04T01:29:13;21.90;99.90
52301;DHT22;38528;53.214;6.562;2022-08-04T01:31:49;21.90;99.90
52301;DHT22;38528;53.214;6.562;2022-08-04T01:34:19;21.90;99.90
52301;DHT22;38528;53.214;6.562;2022-08-04T01:36:56;21.80;99.90
52301;DHT22;38528;53.214;6.562;2022-08-04T01:39:30;21.80;99.90
52301;DHT22;38528;53.214;6.562;2022-08-04T01:42:08;21.80;99.90
52301;DHT22;38528;53.214;6.562;2022-08-04T01:44:36;21.80;99.90
52301;DHT22;38528;53.214;6.562;2022-08-04T01:47:02;21.80;99.90
52301;DHT22;38528;53.214;6.562;2022-08-04T01:49:29;21.80;99.90
52301;DHT22;38528;53.214;6.562;2022-08-04T01:51:55;21.80;99.90
52301;DHT22;38528;53.214;6.562;2022-08-04T01:54:22;21.80;99.90
52301;DHT22;38528;53.214;6.562;2022-08-04T01:56:48;21.70;99.90
52301;DHT22;38528;53.214;6.562;2022-08-04T01:59:17;21.70;99.90
52301;DHT22;38528;53.214;6.562;2022-08-04T02:01:43;21.70;99.90
52301;DHT22;38528;53.214;6.562;2022-08-04T02:04:17;21.80;99.90
52301;DHT22;38528;53.214;6.562;2022-08-04T02:07:06;21.70;99.90
52301;DHT22;38528;53.214;6.562;2022-08-04T02:10:05;21.70;99.90
52301;DHT22;38528;53.214;6.562;2022-08-04T02:15:46;21.60;99.90
52301;DHT22;38528;53.214;6.562;2022-08-04T02:18:30;21.60;99.90
52301;DHT22;38528;53.214;6.562;2022-08-04T02:20:58;21.60;99.90
52301;DHT22;38528;53.214;6.562;2022-08-04T02:26:15;21.60;99.90
52301;DHT22;38528;53.214;6.562;2022-08-04T02:29:03;21.60;99.90
52301;DHT22;38528;53.214;6.562;2022-08-04T02:36:51;21.60;99.90
52301;DHT22;38528;53.214;6.562;2022-08-04T02:39:21;21.50;99.90
52301;DHT22;38528;53.214;6.562;2022-08-04T02:41:49;21.50;99.90
52301;DHT22;38528;53.214;6.562;2022-08-04T02:44:19;21.50;99.90
52301;DHT22;38528;53.214;6.562;2022-08-04T02:46:47;21.50;99.90
52301;DHT22;38528;53.214;6.562;2022-08-04T02:49:16;21.50;99.90
52301;DHT22;38528;53.214;6.562;2022-08-04T02:51:45;21.50;99.90
52301;DHT22;38528;53.214;6.562;2022-08-04T02:54:14;21.50;99.90
52301;DHT22;38528;53.214;6.562;2022-08-04T02:56:42;21.50;99.90
52301;DHT22;38528;53.214;6.562;2022-08-04T02:59:11;21.40;99.90
52301;DHT22;38528;53.214;6.562;2022-08-04T03:01:38;21.40;99.90
52301;DHT22;38528;53.214;6.562;2022-08-04T03:07:13;21.40;99.90
52301;DHT22;38528;53.214;6.562;2022-08-04T03:10:08;21.40;99.90
52301;DHT22;38528;53.214;6.562;2022-08-04T03:18:28;21.50;99.90
52301;DHT22;38528;53.214;6.562;2022-08-04T03:29:43;21.50;99.90
52301;DHT22;38528;53.214;6.562;2022-08-04T03:46:58;21.50;99.90
52301;DHT22;38528;53.214;6.562;2022-08-04T04:12:21;21.50;99.90
52301;DHT22;38528;53.214;6.562;2022-08-04T04:20:55;21.60;99.90
52301;DHT22;38528;53.214;6.562;2022-08-04T04:29:29;21.60;99.90
52301;DHT22;38528;53.214;6.562;2022-08-04T04:35:20;21.60;99.90
52301;DHT22;38528;53.214;6.562;2022-08-04T04:37:55;21.60;99.90
52301;DHT22;38528;53.214;6.562;2022-08-04T04:46:26;21.60;99.90
52301;DHT22;38528;53.214;6.562;2022-08-04T04:49:02;21.50;99.90
52301;DHT22;38528;53.214;6.562;2022-08-04T04:54:10;21.40;99.90
52301;DHT22;38528;53.214;6.562;2022-08-04T04:59:31;21.50;99.90
52301;DHT22;38528;53.214;6.562;2022-08-04T05:02:30;21.60;99.90
52301;DHT22;38528;53.214;6.562;2022-08-04T05:08:17;21.70;99.90
52301;DHT22;38528;53.214;6.562;2022-08-04T05:13:44;21.70;99.90
52301;DHT22;38528;53.214;6.562;2022-08-04T05:16:18;21.80;99.90
52301;DHT22;38528;53.214;6.562;2022-08-04T05:18:48;21.70;99.90
52301;DHT22;38528;53.214;6.562;2022-08-04T05:21:32;21.70;99.90
52301;DHT22;38528;53.214;6.562;2022-08-04T05:24:03;21.80;99.90
52301;DHT22;38528;53.214;6.562;2022-08-04T05:26:34;21.80;99.90
52301;DHT22;38528;53.214;6.562;2022-08-04T05:29:06;21.90;99.90
52301;DHT22;38528;53.214;6.562;2022-08-04T05:31:36;21.90;99.90
52301;DHT22;38528;53.214;6.562;2022-08-04T05:34:11;21.90;99.90
52301;DHT22;38528;53.214;6.562;2022-08-04T05:36:50;22.00;99.90
52301;DHT22;38528;53.214;6.562;2022-08-04T05:39:35;21.90;99.90
52301;DHT22;38528;53.214;6.562;2022-08-04T05:42:02;22.00;99.90
52301;DHT22;38528;53.214;6.562;2022-08-04T05:44:29;22.00;99.90
52301;DHT22;38528;53.214;6.562;2022-08-04T05:46:57;22.00;99.90
52301;DHT22;38528;53.214;6.562;2022-08-04T05:49:24;22.00;99.90
52301;DHT22;38528;53.214;6.562;2022-08-04T05:51:52;22.00;99.90
52301;DHT22;38528;53.214;6.562;2022-08-04T05:54:19;22.10;99.90
52301;DHT22;38528;53.214;6.562;2022-08-04T05:56:46;22.10;99.90
52301;DHT22;38528;53.214;6.562;2022-08-04T05:59:14;22.10;99.90
52301;DHT22;38528;53.214;6.562;2022-08-04T06:01:41;22.10;99.90
52301;DHT22;38528;53.214;6.562;2022-08-04T06:04:10;22.20;99.90
52301;DHT22;38528;53.214;6.562;2022-08-04T06:06:38;22.20;99.90
52301;DHT22;38528;53.214;6.562;2022-08-04T06:09:04;22.30;99.90
52301;DHT22;38528;53.214;6.562;2022-08-04T06:11:30;22.30;99.90
52301;DHT22;38528;53.214;6.562;2022-08-04T06:14:00;22.40;99.90
52301;DHT22;38528;53.214;6.562;2022-08-04T06:16:33;22.50;99.90
52301;DHT22;38528;53.214;6.562;2022-08-04T06:19:05;22.60;99.90
52301;DHT22;38528;53.214;6.562;2022-08-04T06:21:32;22.60;99.90
52301;DHT22;38528;53.214;6.562;2022-08-04T06:24:00;22.70;99.90
52301;DHT22;38528;53.214;6.562;2022-08-04T06:26:27;22.80;99.90
52301;DHT22;38528;53.214;6.562;2022-08-04T06:28:56;23.00;99.90
52301;DHT22;38528;53.214;6.562;2022-08-04T06:31:23;23.00;99.90
52301;DHT22;38528;53.214;6.562;2022-08-04T06:34:13;23.10;99.90
52301;DHT22;38528;53.214;6.562;2022-08-04T06:36:41;23.20;99.90
52301;DHT22;38528;53.214;6.562;2022-08-04T06:39:07;23.40;99.90
52301;DHT22;38528;53.214;6.562;2022-08-04T06:41:34;23.50;99.90
52301;DHT22;38528;53.214;6.562;2022-08-04T06:44:08;23.60;99.90
52301;DHT22;38528;53.214;6.562;2022-08-04T06:46:36;23.70;99.90
52301;DHT22;38528;53.214;6.562;2022-08-04T06:49:02;23.80;99.90
52301;DHT22;38528;53.214;6.562;2022-08-04T06:51:30;23.90;99.90
52301;DHT22;38528;53.214;6.562;2022-08-04T06:53:57;24.00;99.90
52301;DHT22;38528;53.214;6.562;2022-08-04T06:56:24;24.10;99.90
52301;DHT22;38528;53.214;6.562;2022-08-04T06:58:51;24.10;99.90
52301;DHT22;38528;53.214;6.562;2022-08-04T07:01:21;24.20;99.90
52301;DHT22;38528;53.214;6.562;2022-08-04T07:03:48;24.30;99.90
52301;DHT22;38528;53.214;6.562;2022-08-04T07:06:13;24.40;99.90
52301;DHT22;38528;53.214;6.562;2022-08-04T07:08:40;24.40;99.90
52301;DHT22;38528;53.214;6.562;2022-08-04T07:11:06;24.50;99.90
52301;DHT22;38528;53.214;6.562;2022-08-04T07:13:34;24.50;99.90
52301;DHT22;38528;53.214;6.562;2022-08-04T07:16:00;24.60;99.90
52301;DHT22;38528;53.214;6.562;2022-08-04T07:18:27;24.70;99.90
52301;DHT22;38528;53.214;6.562;2022-08-04T07:20:55;24.70;99.90
52301;DHT22;38528;53.214;6.562;2022-08-04T07:23:23;24.80;99.90
52301;DHT22;38528;53.214;6.562;2022-08-04T07:25:54;24.90;99.90
52301;DHT22;38528;53.214;6.562;2022-08-04T07:28:21;25.00;99.90
52301;DHT22;38528;53.214;6.562;2022-08-04T07:30:48;25.10;99.90
52301;DHT22;38528;53.214;6.562;2022-08-04T07:33:15;25.20;99.90
52301;DHT22;38528;53.214;6.562;2022-08-04T07:35:42;25.30;99.90
52301;DHT22;38528;53.214;6.562;2022-08-04T07:38:08;25.40;99.90
52301;DHT22;38528;53.214;6.562;2022-08-04T07:40:36;25.50;99.90
52301;DHT22;38528;53.214;6.562;2022-08-04T07:43:02;25.50;99.90
52301;DHT22;38528;53.214;6.562;2022-08-04T07:45:28;25.60;99.90
52301;DHT22;38528;53.214;6.562;2022-08-04T07:47:54;25.70;99.90
52301;DHT22;38528;53.214;6.562;2022-08-04T07:50:20;25.70;99.90
52301;DHT22;38528;53.214;6.562;2022-08-04T07:52:46;25.80;99.90
52301;DHT22;38528;53.214;6.562;2022-08-04T07:55:12;25.80;99.90
52301;DHT22;38528;53.214;6.562;2022-08-04T07:57:38;25.90;99.90
52301;DHT22;38528;53.214;6.562;2022-08-04T08:00:05;26.00;99.90
52301;DHT22;38528;53.214;6.562;2022-08-04T08:02:32;26.10;99.90
52301;DHT22;38528;53.214;6.562;2022-08-04T08:04:59;26.20;99.90
52301;DHT22;38528;53.214;6.562;2022-08-04T08:07:25;26.20;99.90
52301;DHT22;38528;53.214;6.562;2022-08-04T08:09:51;26.30;99.90
52301;DHT22;38528;53.214;6.562;2022-08-04T08:12:17;26.40;99.90
52301;DHT22;38528;53.214;6.562;2022-08-04T08:14:43;26.50;99.90
52301;DHT22;38528;53.214;6.562;2022-08-04T08:17:09;26.70;99.90
52301;DHT22;38528;53.214;6.562;2022-08-04T08:19:35;26.80;99.90
52301;DHT22;38528;53.214;6.562;2022-08-04T08:22:01;26.90;99.90
52301;DHT22;38528;53.214;6.562;2022-08-04T08:24:28;27.00;99.90
52301;DHT22;38528;53.214;6.562;2022-08-04T08:26:54;27.00;99.90
52301;DHT22;38528;53.214;6.562;2022-08-04T08:29:22;27.00;99.90
52301;DHT22;38528;53.214;6.562;2022-08-04T08:31:47;27.00;99.90
52301;DHT22;38528;53.214;6.562;2022-08-04T08:34:13;27.00;99.90
52301;DHT22;38528;53.214;6.562;2022-08-04T08:36:52;27.00;99.90
52301;DHT22;38528;53.214;6.562;2022-08-04T08:39:54;26.90;99.90
52301;DHT22;38528;53.214;6.562;2022-08-04T08:42:35;27.00;99.90
52301;DHT22;38528;53.214;6.562;2022-08-04T08:59:29;27.40;99.90
52301;DHT22;38528;53.214;6.562;2022-08-04T09:07:45;27.60;99.90
52301;DHT22;38528;53.214;6.562;2022-08-04T09:10:19;27.70;99.90
52301;DHT22;38528;53.214;6.562;2022-08-04T09:13:09;27.70;99.90
52301;DHT22;38528;53.214;6.562;2022-08-04T09:15:56;27.80;99.90
52301;DHT22;38528;53.214;6.562;2022-08-04T09:19:09;27.80;99.90
52301;DHT22;38528;53.214;6.562;2022-08-04T09:21:40;27.70;99.90
52301;DHT22;38528;53.214;6.562;2022-08-04T09:27:09;27.90;99.90
52301;DHT22;38528;53.214;6.562;2022-08-04T09:41:17;28.30;99.90
52301;DHT22;38528;53.214;6.562;2022-08-04T09:47:04;28.50;99.90
52301;DHT22;38528;53.214;6.562;2022-08-04T09:49:37;28.60;99.90
52301;DHT22;38528;53.214;6.562;2022-08-04T09:52:16;28.80;99.90
52301;DHT22;38528;53.214;6.562;2022-08-04T09:54:51;29.10;99.90
52301;DHT22;38528;53.214;6.562;2022-08-04T09:57:31;29.40;99.90
52301;DHT22;38528;53.214;6.562;2022-08-04T10:00:04;29.20;99.90
52301;DHT22;38528;53.214;6.562;2022-08-04T10:02:37;29.40;99.90
52301;DHT22;38528;53.214;6.562;2022-08-04T10:05:06;29.40;99.90
52301;DHT22;38528;53.214;6.562;2022-08-04T10:13:58;33.80;99.20
52301;DHT22;38528;53.214;6.562;2022-08-04T10:19:27;37.30;94.80
52301;DHT22;38528;53.214;6.562;2022-08-04T10:21:58;37.90;93.20
52301;DHT22;38528;53.214;6.562;2022-08-04T10:24:32;37.40;92.70
52301;DHT22;38528;53.214;6.562;2022-08-04T10:27:15;37.30;92.50
52301;DHT22;38528;53.214;6.562;2022-08-04T10:29:47;37.30;90.90
52301;DHT22;38528;53.214;6.562;2022-08-04T10:32:25;37.60;91.70
52301;DHT22;38528;53.214;6.562;2022-08-04T10:35:13;37.30;91.20
52301;DHT22;38528;53.214;6.562;2022-08-04T10:40:35;35.20;92.60
52301;DHT22;38528;53.214;6.562;2022-08-04T10:46:17;36.40;93.00
52301;DHT22;38528;53.214;6.562;2022-08-04T10:51:39;37.10;91.60
52301;DHT22;38528;53.214;6.562;2022-08-04T10:57:06;36.40;92.70
52301;DHT22;38528;53.214;6.562;2022-08-04T11:02:24;35.30;93.60
52301;DHT22;38528;53.214;6.562;2022-08-04T11:07:24;34.90;94.00
52301;DHT22;38528;53.214;6.562;2022-08-04T11:09:51;33.90;94.50
52301;DHT22;38528;53.214;6.562;2022-08-04T11:12:22;33.40;95.10
52301;DHT22;38528;53.214;6.562;2022-08-04T11:15:03;33.40;95.30
52301;DHT22;38528;53.214;6.562;2022-08-04T11:17:34;33.50;95.10
52301;DHT22;38528;53.214;6.562;2022-08-04T11:22:35;33.30;95.10
52301;DHT22;38528;53.214;6.562;2022-08-04T11:25:19;33.20;95.20
52301;DHT22;38528;53.214;6.562;2022-08-04T11:28:12;33.00;95.40
52301;DHT22;38528;53.214;6.562;2022-08-04T11:30:46;33.10;95.50
52301;DHT22;38528;53.214;6.562;2022-08-04T11:44:34;32.10;96.10
52301;DHT22;38528;53.214;6.562;2022-08-04T11:47:10;31.90;96.50
52301;DHT22;38528;53.214;6.562;2022-08-04T11:50:28;31.80;96.60
52301;DHT22;38528;53.214;6.562;2022-08-04T11:52:32;32.60;96.40
52301;DHT22;38528;53.214;6.562;2022-08-04T11:55:02;32.90;95.60
52301;DHT22;38528;53.214;6.562;2022-08-04T11:57:29;32.80;95.30
52301;DHT22;38528;53.214;6.562;2022-08-04T11:59:56;32.70;95.30
52301;DHT22;38528;53.214;6.562;2022-08-04T12:05:19;31.70;95.70
52301;DHT22;38528;53.214;6.562;2022-08-04T12:10:32;31.40;96.00
52301;DHT22;38528;53.214;6.562;2022-08-04T12:13:09;31.40;95.80
52301;DHT22;38528;53.214;6.562;2022-08-04T12:15:56;31.20;95.20
52301;DHT22;38528;53.214;6.562;2022-08-04T12:18:40;30.70;95.50
52301;DHT22;38528;53.214;6.562;2022-08-04T12:24:01;29.70;96.10
52301;DHT22;38528;53.214;6.562;2022-08-04T12:26:35;29.30;96.40
52301;DHT22;38528;53.214;6.562;2022-08-04T12:29:02;29.10;96.50
52301;DHT22;38528;53.214;6.562;2022-08-04T12:31:35;28.80;96.80
52301;DHT22;38528;53.214;6.562;2022-08-04T12:34:30;28.70;97.00
52301;DHT22;38528;53.214;6.562;2022-08-04T12:40:05;28.40;97.60
52301;DHT22;38528;53.214;6.562;2022-08-04T12:42:35;28.20;97.60
52301;DHT22;38528;53.214;6.562;2022-08-04T12:45:07;27.90;97.60
52301;DHT22;38528;53.214;6.562;2022-08-04T12:47:34;27.80;97.80
52301;DHT22;38528;53.214;6.562;2022-08-04T12:50:02;27.80;97.80
52301;DHT22;38528;53.214;6.562;2022-08-04T12:52:38;27.90;97.60
52301;DHT22;38528;53.214;6.562;2022-08-04T12:55:05;28.20;97.50
52301;DHT22;38528;53.214;6.562;2022-08-04T12:57:32;28.50;97.20
52301;DHT22;38528;53.214;6.562;2022-08-04T12:59:59;28.80;97.10
52301;DHT22;38528;53.214;6.562;2022-08-04T13:02:28;28.90;96.80
52301;DHT22;38528;53.214;6.562;2022-08-04T13:04:58;28.90;96.60
52301;DHT22;38528;53.214;6.562;2022-08-04T13:07:25;28.90;96.30
52301;DHT22;38528;53.214;6.562;2022-08-04T13:09:53;28.80;96.30
52301;DHT22;38528;53.214;6.562;2022-08-04T13:12:24;28.80;96.40
52301;DHT22;38528;53.214;6.562;2022-08-04T13:14:52;28.90;96.50
52301;DHT22;38528;53.214;6.562;2022-08-04T13:17:23;28.80;96.30
52301;DHT22;38528;53.214;6.562;2022-08-04T13:19:51;28.90;96.30
52301;DHT22;38528;53.214;6.562;2022-08-04T13:22:27;29.00;96.40
52301;DHT22;38528;53.214;6.562;2022-08-04T13:24:55;29.00;96.50
52301;DHT22;38528;53.214;6.562;2022-08-04T13:27:23;29.10;96.50
52301;DHT22;38528;53.214;6.562;2022-08-04T13:29:51;29.30;96.50
52301;DHT22;38528;53.214;6.562;2022-08-04T13:32:21;29.50;96.40
52301;DHT22;38528;53.214;6.562;2022-08-04T13:34:49;29.60;96.30
52301;DHT22;38528;53.214;6.562;2022-08-04T13:37:17;29.70;96.30
52301;DHT22;38528;53.214;6.562;2022-08-04T13:39:45;29.80;96.20
52301;DHT22;38528;53.214;6.562;2022-08-04T13:42:13;30.00;96.20
52301;DHT22;38528;53.214;6.562;2022-08-04T13:44:44;30.00;96.10
52301;DHT22;38528;53.214;6.562;2022-08-04T13:47:32;29.90;96.30
52301;DHT22;38528;53.214;6.562;2022-08-04T13:50:21;29.80;96.30
52301;DHT22;38528;53.214;6.562;2022-08-04T13:52:56;29.70;96.60
52301;DHT22;38528;53.214;6.562;2022-08-04T13:55:31;29.50;96.50
52301;DHT22;38528;53.214;6.562;2022-08-04T13:58:41;29.40;96.60
52301;DHT22;38528;53.214;6.562;2022-08-04T14:01:19;29.40;96.90
52301;DHT22;38528;53.214;6.562;2022-08-04T14:06:49;29.50;96.60
52301;DHT22;38528;53.214;6.562;2022-08-04T14:09:15;29.50;96.90
52301;DHT22;38528;53.214;6.562;2022-08-04T14:12:25;29.50;97.10
52301;DHT22;38528;53.214;6.562;2022-08-04T14:14:33;29.60;97.00
52301;DHT22;38528;53.214;6.562;2022-08-04T14:17:06;29.40;96.70
52301;DHT22;38528;53.214;6.562;2022-08-04T14:19:55;29.40;97.30
52301;DHT22;38528;53.214;6.562;2022-08-04T14:27:51;28.90;99.90
52301;DHT22;38528;53.214;6.562;2022-08-04T14:35:30;28.90;99.90
52301;DHT22;38528;53.214;6.562;2022-08-04T14:38:02;28.80;99.90
52301;DHT22;38528;53.214;6.562;2022-08-04T14:40:30;28.60;99.90
52301;DHT22;38528;53.214;6.562;2022-08-04T14:42:56;28.50;99.90
52301;DHT22;38528;53.214;6.562;2022-08-04T14:45:36;28.40;99.90
52301;DHT22;38528;53.214;6.562;2022-08-04T14:48:09;28.50;99.90
52301;DHT22;38528;53.214;6.562;2022-08-04T14:50:46;28.50;99.90
52301;DHT22;38528;53.214;6.562;2022-08-04T14:53:18;28.40;99.90
52301;DHT22;38528;53.214;6.562;2022-08-04T14:55:53;28.40;99.90
52301;DHT22;38528;53.214;6.562;2022-08-04T14:58:32;28.20;99.90
52301;DHT22;38528;53.214;6.562;2022-08-04T15:01:00;28.20;99.90
52301;DHT22;38528;53.214;6.562;2022-08-04T15:03:27;28.10;99.90
52301;DHT22;38528;53.214;6.562;2022-08-04T15:05:55;28.00;99.90
52301;DHT22;38528;53.214;6.562;2022-08-04T15:08:21;27.80;99.90
52301;DHT22;38528;53.214;6.562;2022-08-04T15:10:47;27.60;99.90
52301;DHT22;38528;53.214;6.562;2022-08-04T15:13:13;27.40;99.90
52301;DHT22;38528;53.214;6.562;2022-08-04T15:15:41;27.30;99.90
52301;DHT22;38528;53.214;6.562;2022-08-04T15:18:08;27.20;99.90
52301;DHT22;38528;53.214;6.562;2022-08-04T15:20:34;27.10;99.90
52301;DHT22;38528;53.214;6.562;2022-08-04T15:23:01;27.00;99.90
52301;DHT22;38528;53.214;6.562;2022-08-04T15:25:35;27.00;99.90
52301;DHT22;38528;53.214;6.562;2022-08-04T15:28:03;27.10;99.90
52301;DHT22;38528;53.214;6.562;2022-08-04T15:30:30;27.10;99.90
52301;DHT22;38528;53.214;6.562;2022-08-04T15:32:59;27.10;99.90
52301;DHT22;38528;53.214;6.562;2022-08-04T15:35:27;27.20;99.90
52301;DHT22;38528;53.214;6.562;2022-08-04T15:40:37;27.60;99.90
52301;DHT22;38528;53.214;6.562;2022-08-04T15:46:07;27.50;99.90
52301;DHT22;38528;53.214;6.562;2022-08-04T15:48:33;27.40;99.90
52301;DHT22;38528;53.214;6.562;2022-08-04T15:51:02;27.20;99.90
52301;DHT22;38528;53.214;6.562;2022-08-04T15:58:53;27.00;99.90
52301;DHT22;38528;53.214;6.562;2022-08-04T16:01:20;26.90;99.90
52301;DHT22;38528;53.214;6.562;2022-08-04T16:03:50;26.90;99.90
52301;DHT22;38528;53.214;6.562;2022-08-04T16:19:06;26.70;99.90
52301;DHT22;38528;53.214;6.562;2022-08-04T16:21:35;26.60;99.90
52301;DHT22;38528;53.214;6.562;2022-08-04T16:24:34;26.50;99.90
52301;DHT22;38528;53.214;6.562;2022-08-04T16:27:01;26.30;99.90
52301;DHT22;38528;53.214;6.562;2022-08-04T16:34:42;26.10;99.90
52301;DHT22;38528;53.214;6.562;2022-08-04T16:37:10;26.00;99.90
52301;DHT22;38528;53.214;6.562;2022-08-04T16:39:37;26.00;99.90
52301;DHT22;38528;53.214;6.562;2022-08-04T16:45:01;26.00;99.90
52301;DHT22;38528;53.214;6.562;2022-08-04T16:50:19;26.00;99.90
52301;DHT22;38528;53.214;6.562;2022-08-04T16:52:47;26.10;99.90
52301;DHT22;38528;53.214;6.562;2022-08-04T16:55:20;26.00;99.90
52301;DHT22;38528;53.214;6.562;2022-08-04T16:57:56;26.10;99.90
52301;DHT22;38528;53.214;6.562;2022-08-04T17:00:32;26.00;99.90
52301;DHT22;38528;53.214;6.562;2022-08-04T17:03:06;25.90;99.90
52301;DHT22;38528;53.214;6.562;2022-08-04T17:05:33;25.80;99.90
52301;DHT22;38528;53.214;6.562;2022-08-04T17:08:00;25.70;99.90
52301;DHT22;38528;53.214;6.562;2022-08-04T17:10:38;25.60;99.90
52301;DHT22;38528;53.214;6.562;2022-08-04T17:13:28;25.40;99.90
52301;DHT22;38528;53.214;6.562;2022-08-04T17:15:56;25.30;99.90
52301;DHT22;38528;53.214;6.562;2022-08-04T17:18:28;25.30;99.90
52301;DHT22;38528;53.214;6.562;2022-08-04T17:20:56;25.30;99.90
52301;DHT22;38528;53.214;6.562;2022-08-04T17:23:26;25.20;99.90
52301;DHT22;38528;53.214;6.562;2022-08-04T17:25:58;25.20;99.90
52301;DHT22;38528;53.214;6.562;2022-08-04T17:28:24;25.10;99.90
52301;DHT22;38528;53.214;6.562;2022-08-04T17:30:50;25.00;99.90
52301;DHT22;38528;53.214;6.562;2022-08-04T17:33:18;24.90;99.90
52301;DHT22;38528;53.214;6.562;2022-08-04T17:35:46;24.90;99.90
52301;DHT22;38528;53.214;6.562;2022-08-04T17:38:12;24.80;99.90
52301;DHT22;38528;53.214;6.562;2022-08-04T17:40:50;24.70;99.90
52301;DHT22;38528;53.214;6.562;2022-08-04T17:43:17;24.60;99.90
52301;DHT22;38528;53.214;6.562;2022-08-04T17:45:43;24.60;99.90
52301;DHT22;38528;53.214;6.562;2022-08-04T17:48:18;24.50;99.90
52301;DHT22;38528;53.214;6.562;2022-08-04T17:50:43;24.40;99.90
52301;DHT22;38528;53.214;6.562;2022-08-04T17:53:10;24.40;99.90
52301;DHT22;38528;53.214;6.562;2022-08-04T17:55:44;24.30;99.90
52301;DHT22;38528;53.214;6.562;2022-08-04T17:58:15;24.20;99.90
52301;DHT22;38528;53.214;6.562;2022-08-04T18:00:41;24.20;99.90
52301;DHT22;38528;53.214;6.562;2022-08-04T18:03:07;24.10;99.90
52301;DHT22;38528;53.214;6.562;2022-08-04T18:05:32;24.10;99.90
52301;DHT22;38528;53.214;6.562;2022-08-04T18:08:06;24.00;99.90
52301;DHT22;38528;53.214;6.562;2022-08-04T18:10:40;23.90;99.90
52301;DHT22;38528;53.214;6.562;2022-08-04T18:13:07;23.80;99.90
52301;DHT22;38528;53.214;6.562;2022-08-04T18:15:34;23.80;99.90
52301;DHT22;38528;53.214;6.562;2022-08-04T18:18:20;23.90;99.90
52301;DHT22;38528;53.214;6.562;2022-08-04T18:20:47;23.80;99.90
52301;DHT22;38528;53.214;6.562;2022-08-04T18:23:13;23.70;99.90
52301;DHT22;38528;53.214;6.562;2022-08-04T18:25:44;23.70;99.90
52301;DHT22;38528;53.214;6.562;2022-08-04T18:28:11;23.70;99.90
52301;DHT22;38528;53.214;6.562;2022-08-04T18:30:38;23.60;99.90
52301;DHT22;38528;53.214;6.562;2022-08-04T18:33:06;23.50;99.90
52301;DHT22;38528;53.214;6.562;2022-08-04T18:35:32;23.40;99.90
52301;DHT22;38528;53.214;6.562;2022-08-04T18:38:00;23.40;99.90
52301;DHT22;38528;53.214;6.562;2022-08-04T18:40:25;23.30;99.90
52301;DHT22;38528;53.214;6.562;2022-08-04T18:42:51;23.30;99.90
52301;DHT22;38528;53.214;6.562;2022-08-04T18:45:17;23.30;99.90
52301;DHT22;38528;53.214;6.562;2022-08-04T18:47:43;23.30;99.90
52301;DHT22;38528;53.214;6.562;2022-08-04T18:50:08;23.20;99.90
52301;DHT22;38528;53.214;6.562;2022-08-04T18:52:34;23.10;99.90
52301;DHT22;38528;53.214;6.562;2022-08-04T18:55:00;23.10;99.90
52301;DHT22;38528;53.214;6.562;2022-08-04T18:57:28;22.90;99.90
52301;DHT22;38528;53.214;6.562;2022-08-04T18:59:54;22.90;99.90
52301;DHT22;38528;53.214;6.562;2022-08-04T19:02:20;22.90;99.90
52301;DHT22;38528;53.214;6.562;2022-08-04T19:04:46;22.80;99.90
52301;DHT22;38528;53.214;6.562;2022-08-04T19:07:13;22.70;99.90
52301;DHT22;38528;53.214;6.562;2022-08-04T19:09:40;22.70;99.90
52301;DHT22;38528;53.214;6.562;2022-08-04T19:12:05;22.60;99.90
52301;DHT22;38528;53.214;6.562;2022-08-04T19:14:31;22.60;99.90
52301;DHT22;38528;53.214;6.562;2022-08-04T19:17:00;22.50;99.90
52301;DHT22;38528;53.214;6.562;2022-08-04T19:19:26;22.50;99.90
52301;DHT22;38528;53.214;6.562;2022-08-04T19:21:51;22.40;99.90
52301;DHT22;38528;53.214;6.562;2022-08-04T19:24:17;22.30;99.90
52301;DHT22;38528;53.214;6.562;2022-08-04T19:26:43;22.40;99.90
52301;DHT22;38528;53.214;6.562;2022-08-04T19:29:09;22.20;99.90
52301;DHT22;38528;53.214;6.562;2022-08-04T19:31:35;22.20;99.90
52301;DHT22;38528;53.214;6.562;2022-08-04T19:34:01;22.20;99.90
52301;DHT22;38528;53.214;6.562;2022-08-04T19:36:28;22.20;99.90
52301;DHT22;38528;53.214;6.562;2022-08-04T19:38:59;22.20;99.90
52301;DHT22;38528;53.214;6.562;2022-08-04T19:41:26;22.10;99.90
52301;DHT22;38528;53.214;6.562;2022-08-04T19:43:52;22.10;99.90
52301;DHT22;38528;53.214;6.562;2022-08-04T19:46:17;22.10;99.90
52301;DHT22;38528;53.214;6.562;2022-08-04T19:48:46;22.00;99.90
52301;DHT22;38528;53.214;6.562;2022-08-04T19:51:11;22.20;99.90
52301;DHT22;38528;53.214;6.562;2022-08-04T19:53:37;22.10;99.90
52301;DHT22;38528;53.214;6.562;2022-08-04T19:56:03;22.00;99.90
52301;DHT22;38528;53.214;6.562;2022-08-04T19:58:28;22.00;99.90
52301;DHT22;38528;53.214;6.562;2022-08-04T20:00:55;22.00;99.90
52301;DHT22;38528;53.214;6.562;2022-08-04T20:03:20;21.90;99.90
52301;DHT22;38528;53.214;6.562;2022-08-04T20:05:46;21.80;99.90
52301;DHT22;38528;53.214;6.562;2022-08-04T20:08:12;21.80;99.90
52301;DHT22;38528;53.214;6.562;2022-08-04T20:10:39;21.70;99.90
52301;DHT22;38528;53.214;6.562;2022-08-04T20:13:05;21.70;99.90
52301;DHT22;38528;53.214;6.562;2022-08-04T20:15:31;21.70;99.90
52301;DHT22;38528;53.214;6.562;2022-08-04T20:17:57;21.60;99.90
52301;DHT22;38528;53.214;6.562;2022-08-04T20:20:22;21.50;99.90
52301;DHT22;38528;53.214;6.562;2022-08-04T20:22:48;21.50;99.90